Terminal Aerodrome Forecast
Issued by NWS

Home | Current Version | Previous Version | Text Only | Print | Product List | Glossary On
Versions: 1 2 3 4 5 6 7 8 9 10 11 12 13 14 15 16 17 18 19 20 21 22 23 24 25 26 27 28 29 30 31 32 33 34 35 36 37 38 39
000
FTUS41 KGYX 072320
TAFMHT
TAF
KMHT 072320Z 0800/0824 20008KT P6SM SCT060 BKN120
      TEMPO 0800/0804 3SM SHRA BKN025 OVC050
     FM080400 19005KT 5SM BR SCT090 BKN200
     FM081200 23004KT 5SM HZ SCT050 BKN100
     FM081500 30008KT P6SM SCT050 SCT120
     FM081800 32008KT P6SM FEW060=

USA.gov is the U.S. government's official web portal to all federal, state and local government web resources and services.